Time;durP1;ratioP1;P1;durP2;ratioP2;P2;SDS_P1;SDS_P2;PMS_P1;PMS_P2;Temp;Humidity;BMP_temperature;BMP_pressure;BME280_temperature;BME280_humidity;BME280_pressure;Samples;Min_cycle;Max_cycle;Signal;HPM_P1;HPM_P2
2023/11/19 00:00:29;;;;;;;1.90;1.52;;;10.10;99.90;;;;;;5068839;28;20453;-82
2023/11/19 00:02:55;;;;;;;1.88;1.50;;;10.10;99.90;;;;;;5052900;28;20118;-83
2023/11/19 00:05:20;;;;;;;3.13;2.72;;;10.20;99.90;;;;;;5050608;28;20036;-84
2023/11/19 00:07:46;;;;;;;2.50;1.40;;;10.10;99.90;;;;;;5078842;28;20036;-84
2023/11/19 00:10:13;;;;;;;6.85;3.67;;;10.20;99.90;;;;;;5063817;28;20119;-83
2023/11/19 00:12:44;;;;;;;2.10;1.48;;;10.30;99.90;;;;;;5050637;28;20399;-82
2023/11/19 00:15:11;;;;;;;3.25;2.42;;;10.30;99.90;;;;;;5052766;28;20039;-83
2023/11/19 00:17:39;;;;;;;2.85;2.40;;;10.30;99.90;;;;;;5046161;28;20282;-83
2023/11/19 00:20:06;;;;;;;2.30;2.10;;;10.30;99.90;;;;;;5063013;28;20024;-84
2023/11/19 00:22:32;;;;;;;4.40;1.63;;;10.30;99.90;;;;;;5045491;28;20094;-83
2023/11/19 00:24:59;;;;;;;7.28;3.33;;;10.30;99.90;;;;;;5053488;28;20039;-83
2023/11/19 00:27:25;;;;;;;1.73;1.35;;;10.40;99.90;;;;;;5051005;28;20042;-83
2023/11/19 00:29:50;;;;;;;4.05;3.08;;;10.40;99.90;;;;;;5062025;28;20031;-83
2023/11/19 00:32:16;;;;;;;3.45;2.15;;;10.40;99.90;;;;;;5081545;28;20088;-83
2023/11/19 00:34:44;;;;;;;2.80;2.60;;;10.40;99.90;;;;;;5043369;28;20033;-83
2023/11/19 00:37:09;;;;;;;2.60;2.13;;;10.50;99.90;;;;;;5065323;28;20115;-82
2023/11/19 00:39:35;;;;;;;3.78;3.00;;;10.50;99.90;;;;;;5049298;28;20560;-82
2023/11/19 00:42:01;;;;;;;3.15;2.15;;;10.50;99.90;;;;;;5066931;28;20040;-83
2023/11/19 00:44:26;;;;;;;3.95;3.13;;;10.60;99.90;;;;;;5065903;28;20085;-83
2023/11/19 00:46:52;;;;;;;3.28;2.83;;;10.60;99.90;;;;;;5075086;28;20110;-83
2023/11/19 00:49:17;;;;;;;3.25;2.35;;;10.60;99.90;;;;;;5063205;28;20223;-82
2023/11/19 00:51:43;;;;;;;3.63;3.33;;;10.60;99.90;;;;;;5064790;28;20033;-83
2023/11/19 00:54:08;;;;;;;2.22;2.03;;;10.60;99.90;;;;;;5047634;28;20037;-83
2023/11/19 00:56:34;;;;;;;2.67;2.03;;;10.70;99.90;;;;;;5060881;28;20031;-82
2023/11/19 00:59:00;;;;;;;5.47;3.65;;;10.70;99.90;;;;;;5060885;28;20029;-82
2023/11/19 01:01:26;;;;;;;3.70;2.58;;;10.70;99.90;;;;;;5048432;28;20036;-83
2023/11/19 01:03:51;;;;;;;3.95;1.98;;;10.70;99.90;;;;;;5082461;28;20040;-83
2023/11/19 01:06:30;;;;;;;2.53;1.92;;;10.70;99.90;;;;;;5078164;28;20510;-83
2023/11/19 01:08:56;;;;;;;4.15;3.75;;;10.70;99.90;;;;;;5051402;28;20461;-83
2023/11/19 01:11:22;;;;;;;2.80;2.30;;;10.80;99.90;;;;;;5061511;28;20399;-81
2023/11/19 01:13:48;;;;;;;3.20;2.90;;;10.80;99.90;;;;;;5065260;28;20032;-81
2023/11/19 01:16:14;;;;;;;2.95;2.20;;;10.90;99.90;;;;;;5066959;28;20038;-81
2023/11/19 01:18:39;;;;;;;3.22;2.08;;;10.80;99.90;;;;;;5082162;28;20026;-81
2023/11/19 01:21:05;;;;;;;2.47;1.80;;;10.90;99.90;;;;;;5050207;28;20036;-81
2023/11/19 01:23:32;;;;;;;1.83;1.70;;;10.90;99.90;;;;;;5062336;28;20036;-80
2023/11/19 01:25:58;;;;;;;2.88;2.28;;;10.90;99.90;;;;;;5066047;28;20418;-81
2023/11/19 01:28:23;;;;;;;3.47;2.33;;;10.90;99.90;;;;;;5046571;28;20119;-80
2023/11/19 01:30:51;;;;;;;1.42;0.98;;;10.90;99.90;;;;;;5060630;28;20086;-80
2023/11/19 01:33:16;;;;;;;2.60;2.03;;;11.00;99.90;;;;;;5062956;28;20082;-81
2023/11/19 01:35:42;;;;;;;1.90;1.80;;;11.00;99.90;;;;;;5043257;28;20433;-79
2023/11/19 01:38:10;;;;;;;4.60;1.60;;;10.90;99.90;;;;;;5048830;28;20130;-80
2023/11/19 01:40:36;;;;;;;3.17;2.22;;;11.00;99.90;;;;;;5079522;28;20077;-81
2023/11/19 01:43:05;;;;;;;1.95;1.10;;;11.00;99.90;;;;;;5060715;28;20040;-80
2023/11/19 01:45:32;;;;;;;2.45;1.42;;;11.00;99.90;;;;;;5075268;28;20772;-81
2023/11/19 01:47:59;;;;;;;1.35;1.25;;;11.10;99.90;;;;;;5079179;28;20380;-80
2023/11/19 01:50:24;;;;;;;1.73;1.63;;;11.20;99.90;;;;;;5048953;28;20028;-81
2023/11/19 01:52:53;;;;;;;1.80;1.67;;;11.10;99.90;;;;;;5075043;28;20038;-81
2023/11/19 01:55:19;;;;;;;1.85;1.60;;;11.20;99.90;;;;;;5062455;28;20032;-83
2023/11/19 01:57:45;;;;;;;2.47;1.67;;;11.10;99.90;;;;;;5062816;28;20055;-81
2023/11/19 02:00:12;;;;;;;1.83;1.48;;;11.20;99.90;;;;;;5065899;28;20032;-81
2023/11/19 02:02:39;;;;;;;2.47;1.42;;;11.20;99.90;;;;;;5061744;28;20177;-80
2023/11/19 02:05:05;;;;;;;6.55;1.35;;;11.20;99.90;;;;;;5063113;28;20420;-80
2023/11/19 02:07:31;;;;;;;1.92;1.08;;;11.20;99.90;;;;;;5048069;28;20406;-80
2023/11/19 02:09:59;;;;;;;1.95;1.33;;;11.20;99.90;;;;;;5056688;28;20044;-80
2023/11/19 02:12:24;;;;;;;2.83;1.95;;;11.30;99.90;;;;;;5064684;28;20033;-80
2023/11/19 02:14:51;;;;;;;3.35;1.13;;;11.30;99.90;;;;;;5044402;28;20118;-80
2023/11/19 02:17:31;;;;;;;3.17;1.63;;;11.30;99.90;;;;;;5045588;28;20051;-79
2023/11/19 02:19:57;;;;;;;3.70;1.85;;;11.30;99.90;;;;;;5080697;28;20028;-80
2023/11/19 02:22:22;;;;;;;0.95;0.82;;;11.30;99.90;;;;;;5067424;28;20058;-79
2023/11/19 02:24:49;;;;;;;4.18;2.33;;;11.40;99.90;;;;;;5064784;28;20400;-79
2023/11/19 02:27:25;;;;;;;4.07;1.67;;;11.40;99.90;;;;;;5042403;28;20119;-80
2023/11/19 02:29:51;;;;;;;4.07;1.73;;;11.40;99.90;;;;;;5070114;28;20569;-80
2023/11/19 02:32:17;;;;;;;4.00;1.50;;;11.40;99.90;;;;;;5047524;28;20059;-80
2023/11/19 02:34:42;;;;;;;4.25;1.05;;;11.40;99.90;;;;;;5082483;28;20432;-79
2023/11/19 02:37:08;;;;;;;4.43;2.13;;;11.40;99.90;;;;;;5077901;28;20080;-79
2023/11/19 02:39:33;;;;;;;1.85;1.08;;;11.40;99.90;;;;;;5049272;28;20070;-79
2023/11/19 02:41:59;;;;;;;5.10;1.35;;;11.40;99.90;;;;;;5052163;28;20081;-79
2023/11/19 02:44:28;;;;;;;1.80;1.10;;;11.40;99.90;;;;;;5063332;28;20485;-80
2023/11/19 02:46:53;;;;;;;2.30;0.82;;;11.40;99.90;;;;;;5048897;28;20034;-80
2023/11/19 02:49:19;;;;;;;5.72;1.00;;;11.50;99.90;;;;;;5050916;28;20021;-79
2023/11/19 02:51:45;;;;;;;4.78;1.00;;;11.40;99.90;;;;;;5068972;28;20024;-80
2023/11/19 02:54:10;;;;;;;5.97;1.50;;;11.50;99.90;;;;;;5064129;28;20119;-79
2023/11/19 02:56:37;;;;;;;3.13;1.02;;;11.40;99.90;;;;;;5052583;28;20029;-81
2023/11/19 02:59:14;;;;;;;5.03;1.60;;;11.50;99.90;;;;;;5063583;28;20564;-80
2023/11/19 03:01:43;;;;;;;2.45;1.23;;;11.50;99.90;;;;;;5064652;28;20063;-79
2023/11/19 03:04:11;;;;;;;5.43;1.50;;;11.50;99.90;;;;;;5084815;28;20135;-80
2023/11/19 03:06:37;;;;;;;3.67;1.40;;;11.50;99.90;;;;;;5068558;28;20040;-79
2023/11/19 03:09:10;;;;;;;2.95;1.38;;;11.50;99.90;;;;;;5064133;28;20028;-80
2023/11/19 03:11:36;;;;;;;1.48;0.90;;;11.50;99.90;;;;;;5066726;28;20168;-81
2023/11/19 03:14:02;;;;;;;3.88;1.35;;;11.50;99.90;;;;;;5052164;28;20483;-80
2023/11/19 03:16:28;;;;;;;3.72;1.60;;;11.50;99.90;;;;;;5066299;28;20089;-79
2023/11/19 03:18:54;;;;;;;1.83;1.35;;;11.60;99.90;;;;;;5065097;28;20040;-80
2023/11/19 03:21:19;;;;;;;4.72;1.60;;;11.60;99.90;;;;;;5051474;28;20063;-80
2023/11/19 03:23:45;;;;;;;2.60;1.15;;;11.60;99.90;;;;;;5086252;28;20111;-80
2023/11/19 03:26:11;;;;;;;6.85;3.35;;;11.60;99.90;;;;;;5081812;28;20075;-80
2023/11/19 03:28:36;;;;;;;5.70;1.60;;;11.60;99.90;;;;;;5064644;28;20025;-80
2023/11/19 03:31:08;;;;;;;6.82;2.08;;;11.60;99.90;;;;;;5067298;28;20024;-79
2023/11/19 03:33:33;;;;;;;7.68;1.58;;;11.60;99.90;;;;;;5066012;28;20047;-80
2023/11/19 03:35:59;;;;;;;3.70;1.23;;;11.60;99.90;;;;;;5051617;28;20040;-79
2023/11/19 03:38:25;;;;;;;4.07;1.65;;;11.60;99.90;;;;;;5046269;28;20055;-80
2023/11/19 03:40:51;;;;;;;11.05;1.85;;;11.60;99.90;;;;;;5084072;28;20035;-79
2023/11/19 03:43:19;;;;;;;6.35;1.85;;;11.60;99.90;;;;;;5078955;28;20036;-80
2023/11/19 03:45:44;;;;;;;15.52;2.42;;;11.60;99.90;;;;;;5065494;28;20032;-80
2023/11/19 03:48:10;;;;;;;6.95;1.60;;;11.50;99.90;;;;;;5081390;28;20044;-80
2023/11/19 03:50:35;;;;;;;4.35;1.45;;;11.50;99.90;;;;;;5081829;28;20039;-80
2023/11/19 03:53:02;;;;;;;7.63;1.67;;;11.60;99.90;;;;;;5083663;28;20035;-80
2023/11/19 03:55:29;;;;;;;7.35;1.75;;;11.50;99.90;;;;;;5046400;28;20116;-80
2023/11/19 03:57:54;;;;;;;15.70;1.83;;;11.50;99.90;;;;;;5067828;28;20119;-80
2023/11/19 04:00:20;;;;;;;6.93;1.10;;;11.40;99.90;;;;;;5053275;28;20127;-80
2023/11/19 04:02:47;;;;;;;10.95;2.10;;;11.40;99.90;;;;;;5071369;28;20575;-79
2023/11/19 04:05:12;;;;;;;5.25;1.85;;;11.30;99.90;;;;;;5052133;28;20036;-79
2023/11/19 04:07:38;;;;;;;12.27;2.30;;;11.30;99.90;;;;;;5064563;28;20389;-80
2023/11/19 04:10:04;;;;;;;12.65;2.35;;;11.30;99.90;;;;;;5067562;28;20524;-79
2023/11/19 04:12:29;;;;;;;7.80;1.90;;;11.20;99.90;;;;;;5051529;28;20031;-80
2023/11/19 04:14:56;;;;;;;10.68;2.20;;;11.30;99.90;;;;;;5080333;28;20492;-82
2023/11/19 04:17:23;;;;;;;9.10;2.22;;;11.20;99.90;;;;;;5069946;28;20192;-81
2023/11/19 04:19:48;;;;;;;4.07;1.70;;;11.20;99.90;;;;;;5079522;28;20544;-82
2023/11/19 04:22:14;;;;;;;9.23;1.75;;;11.20;99.90;;;;;;5066098;28;20139;-80
2023/11/19 04:24:40;;;;;;;10.25;2.15;;;11.20;99.90;;;;;;5083433;28;20519;-82
2023/11/19 04:27:06;;;;;;;5.78;1.40;;;11.10;99.90;;;;;;5064602;28;20111;-81
2023/11/19 04:29:32;;;;;;;11.48;1.73;;;11.20;99.90;;;;;;5083607;28;20127;-80
2023/11/19 04:31:58;;;;;;;12.52;2.30;;;11.10;99.90;;;;;;5050509;28;20546;-81
2023/11/19 04:34:23;;;;;;;20.75;2.47;;;11.10;99.90;;;;;;5046457;28;20040;-80
2023/11/19 04:36:49;;;;;;;8.45;1.92;;;11.10;99.90;;;;;;5064475;28;20038;-82
2023/11/19 04:39:15;;;;;;;7.93;2.65;;;11.10;99.90;;;;;;5081417;28;20131;-82
2023/11/19 04:41:51;;;;;;;6.68;1.83;;;11.10;99.90;;;;;;5079782;28;20043;-82
2023/11/19 04:44:17;;;;;;;;;;;10.90;99.90;;;;;;5077736;28;20036;-82
2023/11/19 04:46:44;;;;;;;20.85;3.20;;;11.00;99.90;;;;;;5084534;28;25416;-81
2023/11/19 04:49:13;;;;;;;12.57;2.25;;;11.00;99.90;;;;;;5079574;28;20028;-81
2023/11/19 04:51:40;;;;;;;19.85;2.60;;;11.00;99.90;;;;;;5053243;28;20086;-81
2023/11/19 04:54:08;;;;;;;16.92;3.42;;;11.00;99.90;;;;;;5081083;28;20050;-80
2023/11/19 04:56:35;;;;;;;10.95;2.17;;;11.00;99.90;;;;;;5064299;28;20024;-81
2023/11/19 04:59:01;;;;;;;19.67;3.30;;;11.10;99.90;;;;;;5066939;28;20472;-81
2023/11/19 05:01:26;;;;;;;7.18;1.63;;;11.10;99.90;;;;;;5067276;28;20029;-81
2023/11/19 05:03:52;;;;;;;5.85;1.80;;;11.00;99.90;;;;;;5059233;28;20036;-80
2023/11/19 05:06:17;;;;;;;9.00;2.13;;;11.00;99.90;;;;;;5062266;28;20151;-80
2023/11/19 05:08:43;;;;;;;17.40;3.45;;;11.00;99.90;;;;;;5043952;28;20040;-80
2023/11/19 05:11:11;;;;;;;7.20;2.70;;;11.00;99.90;;;;;;5046347;28;20023;-81
2023/11/19 05:13:37;;;;;;;8.00;1.40;;;11.00;99.90;;;;;;5059830;28;20032;-80
2023/11/19 05:16:03;;;;;;;8.32;1.45;;;11.10;99.90;;;;;;5064033;28;20586;-80
2023/11/19 05:18:29;;;;;;;8.13;1.90;;;11.00;99.90;;;;;;5048634;28;20040;-81
2023/11/19 05:20:54;;;;;;;10.10;2.70;;;11.10;99.90;;;;;;5080644;28;20084;-80
2023/11/19 05:23:20;;;;;;;17.80;3.58;;;11.10;99.90;;;;;;5064249;28;20115;-81
2023/11/19 05:25:45;;;;;;;16.15;3.83;;;11.10;99.90;;;;;;5060999;28;20037;-81
2023/11/19 05:28:11;;;;;;;16.45;3.20;;;11.10;99.90;;;;;;5060064;28;20526;-81
2023/11/19 05:30:36;;;;;;;11.40;2.97;;;11.10;99.90;;;;;;5082229;28;20519;-80
2023/11/19 05:33:02;;;;;;;11.52;2.35;;;11.20;99.90;;;;;;5061309;28;20580;-81
2023/11/19 05:35:28;;;;;;;7.97;2.08;;;11.10;99.90;;;;;;5059913;28;20040;-80
2023/11/19 05:37:55;;;;;;;14.02;3.25;;;11.10;99.90;;;;;;5047877;28;20032;-81
2023/11/19 05:40:21;;;;;;;20.88;3.05;;;11.20;99.90;;;;;;5049508;28;20460;-80
2023/11/19 05:42:46;;;;;;;13.32;2.25;;;11.20;99.90;;;;;;5064285;28;20060;-80
2023/11/19 05:45:12;;;;;;;19.50;2.67;;;11.20;99.90;;;;;;5062312;28;20035;-81
2023/11/19 05:47:42;;;;;;;14.52;3.40;;;11.20;99.90;;;;;;5058882;28;20051;-82
2023/11/19 05:50:08;;;;;;;17.42;2.60;;;11.20;99.90;;;;;;5046902;28;20035;-82
2023/11/19 05:52:34;;;;;;;14.23;2.20;;;11.20;99.90;;;;;;5079920;28;20040;-82
2023/11/19 05:55:05;;;;;;;19.45;3.38;;;11.20;99.90;;;;;;5046853;28;20036;-81
2023/11/19 05:57:34;;;;;;;19.23;3.22;;;11.30;99.90;;;;;;5055367;28;20074;-81
2023/11/19 06:00:00;;;;;;;14.57;2.70;;;11.30;99.90;;;;;;5084916;28;20055;-82
2023/11/19 06:02:27;;;;;;;18.67;3.28;;;11.20;99.90;;;;;;5050654;28;20122;-82
2023/11/19 06:04:53;;;;;;;8.38;1.85;;;11.20;99.90;;;;;;5067033;28;20383;-82
2023/11/19 06:07:19;;;;;;;11.65;2.10;;;11.20;99.90;;;;;;5048433;28;20032;-83
2023/11/19 06:09:45;;;;;;;22.60;3.05;;;11.20;99.90;;;;;;5047247;28;20033;-82
2023/11/19 06:12:10;;;;;;;21.88;2.95;;;11.20;99.90;;;;;;5085490;28;20040;-83
2023/11/19 06:14:36;;;;;;;23.08;2.40;;;11.20;99.90;;;;;;5068405;28;20427;-82
2023/11/19 06:17:01;;;;;;;16.83;2.38;;;11.20;99.90;;;;;;5053297;28;20578;-82
2023/11/19 06:19:28;;;;;;;17.77;2.58;;;11.20;99.90;;;;;;5066000;28;20048;-82
2023/11/19 06:21:54;;;;;;;10.40;1.45;;;11.10;99.90;;;;;;5054587;28;20027;-81
2023/11/19 06:24:19;;;;;;;27.63;4.43;;;11.10;99.90;;;;;;5062865;28;20381;-81
2023/11/19 06:26:45;;;;;;;22.55;3.22;;;11.10;99.90;;;;;;5064601;28;20659;-82
2023/11/19 06:29:11;;;;;;;26.05;4.40;;;11.00;99.90;;;;;;5052259;28;20385;-82
2023/11/19 06:31:36;;;;;;;23.58;2.78;;;11.00;99.90;;;;;;5052474;28;20028;-82
2023/11/19 06:34:02;;;;;;;10.15;2.88;;;11.10;99.90;;;;;;5071782;28;20055;-81
2023/11/19 06:36:27;;;;;;;14.20;3.22;;;11.10;99.90;;;;;;5080760;28;20096;-82
2023/11/19 06:38:53;;;;;;;20.42;3.22;;;11.10;99.90;;;;;;5068421;28;20481;-82
2023/11/19 06:41:18;;;;;;;28.27;3.67;;;11.10;99.90;;;;;;5051128;28;20050;-81
2023/11/19 06:43:44;;;;;;;25.40;5.13;;;11.10;99.90;;;;;;5066403;28;20028;-81
2023/11/19 06:46:16;;;;;;;14.00;3.35;;;11.00;99.90;;;;;;5081432;28;20086;-82
2023/11/19 06:48:43;;;;;;;22.33;3.78;;;11.00;99.90;;;;;;5051382;28;20125;-82
2023/11/19 06:51:09;;;;;;;16.92;2.55;;;11.00;99.90;;;;;;5053749;28;20472;-81
2023/11/19 06:53:35;;;;;;;9.35;2.65;;;11.00;99.90;;;;;;5050805;28;20047;-82
2023/11/19 06:56:03;;;;;;;11.45;2.97;;;10.90;99.90;;;;;;5066484;28;20507;-81
2023/11/19 06:58:29;;;;;;;16.73;2.40;;;10.90;99.90;;;;;;5082127;28;20188;-81
2023/11/19 07:00:54;;;;;;;18.50;3.78;;;10.90;99.90;;;;;;5064066;28;20076;-81
2023/11/19 07:03:21;;;;;;;18.95;2.80;;;10.90;99.90;;;;;;5063810;28;20462;-81
2023/11/19 07:05:46;;;;;;;8.60;1.70;;;10.90;99.90;;;;;;5079400;28;20037;-82
2023/11/19 07:08:12;;;;;;;13.02;2.65;;;10.80;99.90;;;;;;5065644;28;20090;-83
2023/11/19 07:10:37;;;;;;;18.33;2.83;;;11.00;99.90;;;;;;5052622;28;20073;-82
2023/11/19 07:13:05;;;;;;;18.20;3.45;;;10.80;99.90;;;;;;5053884;28;20055;-81
2023/11/19 07:15:32;;;;;;;12.65;2.75;;;10.80;99.90;;;;;;5053695;28;20077;-81
2023/11/19 07:17:59;;;;;;;14.65;3.70;;;10.80;99.90;;;;;;5066622;28;20032;-82
2023/11/19 07:20:27;;;;;;;15.80;2.58;;;10.80;99.90;;;;;;5066590;28;20492;-81
2023/11/19 07:22:54;;;;;;;16.73;2.17;;;10.80;99.90;;;;;;5067970;28;20040;-81
2023/11/19 07:25:21;;;;;;;13.73;2.03;;;10.80;99.90;;;;;;5068691;28;20056;-82
2023/11/19 07:27:48;;;;;;;21.08;3.30;;;10.70;99.90;;;;;;5045975;28;20024;-82
2023/11/19 07:30:13;;;;;;;15.25;2.15;;;10.80;99.90;;;;;;5068779;28;20032;-82
2023/11/19 07:32:39;;;;;;;15.35;3.53;;;10.70;99.90;;;;;;5051559;28;20388;-81
2023/11/19 07:35:05;;;;;;;18.75;2.22;;;10.70;99.90;;;;;;5050117;28;20384;-84
2023/11/19 07:37:31;;;;;;;16.27;2.97;;;10.60;99.90;;;;;;5065789;28;20488;-81
2023/11/19 07:39:56;;;;;;;29.52;4.50;;;10.70;99.90;;;;;;5067921;28;20024;-82
2023/11/19 07:42:23;;;;;;;17.92;2.72;;;10.60;99.90;;;;;;5062098;28;20504;-81
2023/11/19 07:44:49;;;;;;;22.40;4.57;;;10.60;99.90;;;;;;5063280;28;20056;-82
2023/11/19 07:47:14;;;;;;;17.77;2.28;;;10.70;99.90;;;;;;5047003;28;20075;-82
2023/11/19 07:49:40;;;;;;;17.25;2.20;;;10.70;99.90;;;;;;5062747;28;20044;-81
2023/11/19 07:52:05;;;;;;;9.90;3.00;;;10.60;99.90;;;;;;5051478;28;20031;-81
2023/11/19 07:54:31;;;;;;;29.02;4.00;;;10.70;99.90;;;;;;5052088;28;20043;-82
2023/11/19 07:56:57;;;;;;;23.08;3.92;;;10.70;99.90;;;;;;5063702;28;20043;-82
2023/11/19 07:59:22;;;;;;;12.70;2.28;;;10.80;99.90;;;;;;5067157;28;20032;-81
2023/11/19 08:01:48;;;;;;;13.38;1.58;;;10.80;99.90;;;;;;5047460;28;20115;-80
2023/11/19 08:04:13;;;;;;;20.45;2.83;;;10.80;99.90;;;;;;5077215;28;20063;-82
2023/11/19 08:06:40;;;;;;;18.58;2.88;;;10.70;99.90;;;;;;5075797;28;20036;-82
2023/11/19 08:09:06;;;;;;;23.88;4.43;;;10.90;99.90;;;;;;5078915;28;20124;-82
2023/11/19 08:11:32;;;;;;;17.27;2.78;;;10.90;99.90;;;;;;5065079;28;20123;-80
2023/11/19 08:13:58;;;;;;;17.77;2.60;;;11.10;99.90;;;;;;5047522;28;20502;-79
2023/11/19 08:16:23;;;;;;;17.02;3.13;;;11.00;99.90;;;;;;5066387;28;20036;-80
2023/11/19 08:18:49;;;;;;;17.13;2.97;;;11.00;99.90;;;;;;5059650;28;20488;-80
2023/11/19 08:21:14;;;;;;;15.50;2.13;;;11.00;99.90;;;;;;5054668;28;20368;-81
2023/11/19 08:23:40;;;;;;;24.60;3.95;;;10.90;99.90;;;;;;5061998;28;20056;-81
2023/11/19 08:26:06;;;;;;;15.65;2.38;;;11.00;99.90;;;;;;5048832;28;20031;-80
2023/11/19 08:28:34;;;;;;;14.20;2.47;;;11.00;99.90;;;;;;5068576;28;20931;-81
2023/11/19 08:30:59;;;;;;;24.20;4.18;;;11.10;99.90;;;;;;5068640;28;20574;-80
2023/11/19 08:33:25;;;;;;;9.45;2.30;;;11.10;99.90;;;;;;5040901;28;20036;-80
2023/11/19 08:35:50;;;;;;;32.30;5.18;;;11.10;99.90;;;;;;5050576;28;20046;-80
2023/11/19 08:38:16;;;;;;;16.85;2.78;;;11.10;99.90;;;;;;5027080;28;20047;-80
2023/11/19 08:40:41;;;;;;;28.05;4.75;;;11.10;99.90;;;;;;5080111;28;20036;-79
2023/11/19 08:43:07;;;;;;;12.05;3.22;;;11.20;99.90;;;;;;5077973;28;20040;-79
2023/11/19 08:45:33;;;;;;;21.92;4.38;;;11.20;99.90;;;;;;5064495;28;20502;-79
2023/11/19 08:47:58;;;;;;;14.85;2.92;;;11.20;99.90;;;;;;5062505;28;20040;-81
2023/11/19 08:50:24;;;;;;;18.08;3.28;;;11.20;99.90;;;;;;5062683;28;20036;-80
2023/11/19 08:52:49;;;;;;;19.35;3.25;;;11.30;99.90;;;;;;5038289;28;20372;-80
2023/11/19 08:55:15;;;;;;;16.50;1.92;;;11.40;99.90;;;;;;5049441;28;20085;-81
2023/11/19 08:57:41;;;;;;;15.75;3.42;;;11.50;99.90;;;;;;5064492;28;20061;-80
2023/11/19 09:00:07;;;;;;;22.48;2.53;;;11.40;99.90;;;;;;5063100;28;20034;-81
2023/11/19 09:02:39;;;;;;;29.35;3.72;;;11.50;99.90;;;;;;5052025;28;20618;-80
2023/11/19 09:05:07;;;;;;;15.82;3.65;;;11.50;99.90;;;;;;5066259;28;20027;-81
2023/11/19 09:07:33;;;;;;;17.90;3.60;;;11.50;99.90;;;;;;5066166;28;20063;-80
2023/11/19 09:09:58;;;;;;;19.08;3.75;;;11.60;99.90;;;;;;5068626;28;20056;-79
2023/11/19 09:12:24;;;;;;;7.68;2.83;;;11.60;99.90;;;;;;5060691;28;20040;-80
2023/11/19 09:14:49;;;;;;;23.88;3.30;;;11.80;99.90;;;;;;5063562;28;20024;-80
2023/11/19 09:17:15;;;;;;;15.63;2.40;;;11.80;99.90;;;;;;5050412;28;20051;-81
2023/11/19 09:19:41;;;;;;;25.27;2.75;;;11.80;99.90;;;;;;5069160;28;20032;-79
2023/11/19 09:22:07;;;;;;;15.20;2.58;;;11.90;99.90;;;;;;5066868;28;20035;-79
2023/11/19 09:24:32;;;;;;;23.25;4.28;;;12.00;99.90;;;;;;5046676;28;20036;-81
2023/11/19 09:26:58;;;;;;;23.35;2.45;;;12.00;99.90;;;;;;5060725;28;20056;-81
2023/11/19 09:29:24;;;;;;;6.88;1.55;;;12.00;99.90;;;;;;5080626;28;20036;-82
2023/11/19 09:31:49;;;;;;;20.50;3.45;;;12.20;99.90;;;;;;5064182;28;20032;-82
2023/11/19 09:34:15;;;;;;;17.52;2.13;;;12.20;99.90;;;;;;5079220;28;20044;-82
2023/11/19 09:36:43;;;;;;;27.27;3.83;;;12.20;99.90;;;;;;5079241;28;20024;-81
2023/11/19 09:39:10;;;;;;;20.00;2.90;;;12.20;99.90;;;;;;5061280;28;20127;-80
2023/11/19 09:41:36;;;;;;;14.52;2.72;;;12.20;99.90;;;;;;5067108;28;20373;-81
2023/11/19 09:44:01;;;;;;;16.92;3.22;;;12.30;99.90;;;;;;5043365;28;20039;-81
2023/11/19 09:46:27;;;;;;;17.83;2.05;;;12.20;99.90;;;;;;5081467;28;20766;-81
2023/11/19 09:48:54;;;;;;;20.77;3.10;;;12.30;99.90;;;;;;5067342;28;20060;-81
2023/11/19 09:51:20;;;;;;;8.15;1.77;;;12.30;99.90;;;;;;5048229;28;20063;-80
2023/11/19 09:53:45;;;;;;;21.42;3.15;;;12.40;99.90;;;;;;5048331;28;20051;-81
2023/11/19 09:56:11;;;;;;;20.38;2.97;;;12.30;99.90;;;;;;5078432;28;20648;-80
2023/11/19 09:58:37;;;;;;;16.15;2.85;;;12.40;99.90;;;;;;5062212;28;20032;-80
2023/11/19 10:01:05;;;;;;;19.50;3.65;;;12.40;99.90;;;;;;5047872;28;20077;-81
2023/11/19 10:03:33;;;;;;;18.73;3.58;;;12.50;99.90;;;;;;5047685;28;20039;-81
2023/11/19 10:05:59;;;;;;;14.70;2.30;;;12.60;99.90;;;;;;5061874;28;20041;-81
2023/11/19 10:08:24;;;;;;;20.02;3.10;;;12.60;99.90;;;;;;5043881;28;20032;-81
2023/11/19 10:10:51;;;;;;;10.05;2.45;;;12.60;99.90;;;;;;5047949;28;20034;-82
2023/11/19 10:13:17;;;;;;;23.15;2.90;;;12.70;99.90;;;;;;5061326;28;20098;-82
2023/11/19 10:15:43;;;;;;;16.90;2.78;;;12.60;99.90;;;;;;5062231;28;20032;-81
2023/11/19 10:18:08;;;;;;;21.08;2.75;;;12.70;99.90;;;;;;5053307;28;20032;-81
2023/11/19 10:20:37;;;;;;;20.70;3.83;;;12.60;99.90;;;;;;5045588;28;20111;-81
2023/11/19 10:23:03;;;;;;;17.67;3.70;;;12.70;99.90;;;;;;5045378;28;20066;-81
2023/11/19 10:25:29;;;;;;;17.65;3.28;;;12.70;99.90;;;;;;5061788;28;20134;-81
2023/11/19 10:27:55;;;;;;;28.77;4.60;;;12.70;99.90;;;;;;5064437;28;20063;-80
2023/11/19 10:30:21;;;;;;;15.30;3.08;;;12.70;99.90;;;;;;5053523;28;20029;-81
2023/11/19 10:33:09;;;;;;;29.08;5.03;;;12.70;99.90;;;;;;5046057;28;20032;-81
2023/11/19 10:35:36;;;;;;;18.92;3.90;;;12.70;99.90;;;;;;5054081;28;20504;-80
2023/11/19 10:38:14;;;;;;;18.90;2.80;;;12.70;99.90;;;;;;5048207;28;20504;-81
2023/11/19 10:40:40;;;;;;;21.75;3.15;;;12.70;99.90;;;;;;5048552;28;20037;-81
2023/11/19 10:43:07;;;;;;;25.85;4.47;;;12.70;99.90;;;;;;5065285;28;20039;-81
2023/11/19 10:45:34;;;;;;;28.48;4.18;;;12.70;99.90;;;;;;5052580;28;20032;-80
2023/11/19 10:48:00;;;;;;;27.73;4.72;;;12.80;99.90;;;;;;5059722;28;20524;-81
2023/11/19 10:50:26;;;;;;;24.05;3.58;;;12.80;99.90;;;;;;5089960;28;20032;-81
2023/11/19 10:52:59;;;;;;;24.27;3.95;;;12.80;99.90;;;;;;5065442;28;20028;-82
2023/11/19 10:55:27;;;;;;;15.73;2.72;;;12.80;99.90;;;;;;5082519;28;20043;-82
2023/11/19 10:57:53;;;;;;;25.55;4.05;;;12.80;99.90;;;;;;5067221;28;20039;-81
2023/11/19 11:00:18;;;;;;;23.73;4.40;;;12.80;99.90;;;;;;5052145;28;20400;-81
2023/11/19 11:02:45;;;;;;;25.90;4.75;;;12.80;99.90;;;;;;5063268;28;20499;-81
2023/11/19 11:05:12;;;;;;;20.15;2.58;;;12.80;99.90;;;;;;5050119;28;20031;-81
2023/11/19 11:07:37;;;;;;;15.65;2.22;;;12.80;99.90;;;;;;5051473;28;20036;-81
2023/11/19 11:10:07;;;;;;;22.35;2.72;;;12.80;99.90;;;;;;5054669;28;20036;-81
2023/11/19 11:12:36;;;;;;;9.88;1.35;;;12.90;99.90;;;;;;5053386;28;20400;-81
2023/11/19 11:15:01;;;;;;;18.80;3.95;;;12.90;99.90;;;;;;5054603;28;20028;-80
2023/11/19 11:37:19;;;;;;;25.25;2.92;;;13.20;99.90;;;;;;5040886;28;20049;-85
2023/11/19 11:39:47;;;;;;;23.98;5.53;;;13.20;99.90;;;;;;5039746;28;20100;-79
2023/11/19 11:42:33;;;;;;;24.10;3.13;;;13.30;99.90;;;;;;5023616;28;20511;-85
2023/11/19 11:45:07;;;;;;;14.45;3.70;;;13.40;99.90;;;;;;5021734;28;20610;-84
2023/11/19 11:47:42;;;;;;;9.57;1.58;;;13.50;99.90;;;;;;5021261;28;20479;-84
2023/11/19 11:50:11;;;;;;;11.95;1.98;;;13.40;99.90;;;;;;5042169;28;20833;-84
2023/11/19 11:52:56;;;;;;;13.45;2.50;;;13.60;99.90;;;;;;5009181;28;20030;-85
2023/11/19 11:55:28;;;;;;;14.80;2.55;;;13.70;99.90;;;;;;5039629;28;20189;-84
2023/11/19 11:57:56;;;;;;;13.30;2.28;;;13.70;99.90;;;;;;5025314;28;20494;-85
2023/11/19 12:00:31;;;;;;;20.73;2.92;;;13.70;99.90;;;;;;5009396;28;20027;-85
2023/11/19 12:02:59;;;;;;;18.92;2.33;;;13.80;99.90;;;;;;5020844;28;20043;-82
2023/11/19 12:05:24;;;;;;;16.25;1.70;;;13.70;99.90;;;;;;5012953;28;20138;-86
2023/11/19 12:08:20;;;;;;;8.95;2.15;;;13.80;99.90;;;;;;5008589;28;20491;-84
2023/11/19 12:10:52;;;;;;;18.70;3.63;;;13.80;99.90;;;;;;5011091;28;20029;-85
2023/11/19 12:13:21;;;;;;;14.95;2.17;;;13.90;99.90;;;;;;5009649;28;20036;-85
2023/11/19 12:15:56;;;;;;;14.18;2.58;;;13.90;99.90;;;;;;5009898;28;20060;-83
2023/11/19 12:18:28;;;;;;;12.00;2.25;;;14.10;99.90;;;;;;5040436;28;20036;-86
2023/11/19 12:20:54;;;;;;;14.02;2.97;;;14.00;99.90;;;;;;5009303;28;20030;-85
2023/11/19 12:23:19;;;;;;;23.95;4.18;;;14.20;99.90;;;;;;5009709;28;20094;-86
2023/11/19 12:25:45;;;;;;;14.88;2.90;;;14.10;99.90;;;;;;5038497;28;20419;-84
2023/11/19 12:28:17;;;;;;;12.63;2.10;;;14.10;99.90;;;;;;5023802;28;20368;-80
2023/11/19 12:30:43;;;;;;;18.70;2.40;;;14.10;99.90;;;;;;5038899;28;20927;-81
2023/11/19 12:33:09;;;;;;;12.27;1.65;;;14.10;99.90;;;;;;5033079;28;20096;-86
2023/11/19 12:35:42;;;;;;;15.05;2.40;;;14.10;99.90;;;;;;5027453;28;20051;-84
2023/11/19 12:38:08;;;;;;;10.70;1.67;;;13.90;99.90;;;;;;5010675;28;20041;-86
2023/11/19 12:40:34;;;;;;;18.83;2.85;;;14.00;99.90;;;;;;5012306;28;20041;-87
2023/11/19 12:43:00;;;;;;;10.10;2.79;;;13.90;99.90;;;;;;4683287;28;10000703;-83
2023/11/19 12:45:36;;;;;;;11.93;2.28;;;14.00;99.90;;;;;;4662451;28;9999766;-86
2023/11/19 12:48:05;;;;;;;7.18;1.50;;;14.00;99.90;;;;;;5022271;28;20036;-83
2023/11/19 12:50:59;;;;;;;23.92;2.80;;;14.00;99.90;;;;;;5043998;28;20037;-83
2023/11/19 12:53:26;;;;;;;10.32;2.20;;;13.90;99.90;;;;;;5039770;28;20507;-85
2023/11/19 12:55:52;;;;;;;14.45;2.72;;;13.90;99.90;;;;;;5023897;28;20488;-84
2023/11/19 12:58:30;;;;;;;15.68;2.20;;;13.80;99.90;;;;;;5024515;28;20037;-81